Time;durP1;ratioP1;P1;durP2;ratioP2;P2;SDS_P1;SDS_P2;PMS_P1;PMS_P2;Temp;Humidity;BMP_temperature;BMP_pressure;BME280_temperature;BME280_humidity;BME280_pressure;Samples;Min_cycle;Max_cycle;Signal;HPM_P1;HPM_P2
2023/06/01 00:00:41;;;;;;;4.82;1.98;;;15.30;99.90;;;-141.84;53.41;20689.88;5070984;28;20243;-69
2023/06/01 00:03:10;;;;;;;2.40;1.90;;;15.20;99.90;;;-141.84;53.33;20718.34;5071997;28;20683;-69
2023/06/01 00:05:38;;;;;;;3.78;2.10;;;15.10;99.90;;;-141.84;53.24;20708.19;5080757;28;20220;-69
2023/06/01 00:08:07;;;;;;;3.35;2.10;;;15.10;99.90;;;-141.84;53.53;20728.50;5071704;28;20197;-69
2023/06/01 00:10:36;;;;;;;3.08;1.80;;;15.10;99.90;;;-141.84;54.22;20655.31;5072382;28;20288;-68
2023/06/01 00:13:04;;;;;;;2.90;1.97;;;15.00;99.90;;;-141.84;54.90;20641.09;5072204;28;20299;-69
2023/06/01 00:15:32;;;;;;;2.33;1.80;;;14.90;99.90;;;-141.84;54.82;20624.84;5071993;28;20224;-68
2023/06/01 00:18:00;;;;;;;3.05;1.80;;;14.80;99.90;;;-141.84;54.41;20637.03;5072347;28;20231;-69
2023/06/01 00:20:29;;;;;;;2.53;1.92;;;14.90;99.90;;;-141.84;54.86;20641.09;5071815;28;20211;-68
2023/06/01 00:22:58;;;;;;;3.78;1.90;;;14.80;99.90;;;-141.84;55.04;20614.66;5071919;28;20228;-69
2023/06/01 00:25:27;;;;;;;3.38;1.80;;;14.70;99.90;;;-141.84;55.21;20606.53;5072082;28;20227;-68
2023/06/01 00:27:56;;;;;;;2.97;1.83;;;14.80;99.90;;;-141.84;55.08;20624.84;5072000;28;20196;-68
2023/06/01 00:30:24;;;;;;;2.30;2.10;;;14.80;99.90;;;-141.84;55.46;20588.25;5071336;28;20204;-68
2023/06/01 00:32:53;;;;;;;3.20;1.97;;;14.70;99.90;;;-141.84;55.94;20580.13;5071254;28;20259;-68
2023/06/01 00:35:21;;;;;;;2.83;2.00;;;14.70;99.90;;;-141.84;55.68;20616.69;5091958;28;20200;-69
2023/06/01 00:37:49;;;;;;;3.50;1.70;;;14.60;99.90;;;-141.84;55.57;20598.41;5091842;28;20224;-69
2023/06/01 00:40:18;;;;;;;3.22;1.90;;;14.70;99.90;;;-141.84;55.25;20618.72;5084730;28;20242;-68
2023/06/01 00:42:47;;;;;;;2.63;2.05;;;14.70;99.90;;;-141.84;55.51;20635.00;5071884;28;20284;-68
2023/06/01 00:45:15;;;;;;;2.20;2.00;;;14.60;99.90;;;-141.84;55.50;20584.19;5051590;28;20288;-69
2023/06/01 00:47:45;;;;;;;4.65;2.00;;;14.60;99.90;;;-141.84;55.16;20606.53;5051669;28;20198;-69
2023/06/01 00:50:14;;;;;;;3.60;2.10;;;14.60;99.90;;;-141.84;55.24;20590.28;5049178;28;20723;-69
2023/06/01 00:52:43;;;;;;;2.53;1.90;;;14.60;99.90;;;-141.84;55.42;20588.25;5051383;28;20645;-68
2023/06/01 00:55:12;;;;;;;2.47;2.00;;;14.60;99.90;;;-141.84;55.82;20563.84;5016462;28;20292;-69
2023/06/01 00:57:42;;;;;;;2.78;1.92;;;14.50;99.90;;;-141.84;56.31;20557.75;5051495;28;20229;-68
2023/06/01 01:00:13;;;;;;;4.03;2.07;;;14.50;99.90;;;-141.84;55.64;20559.78;5052260;28;20205;-69
2023/06/01 01:02:44;;;;;;;2.90;1.80;;;14.40;99.90;;;-141.84;55.52;20537.44;5071386;28;20260;-68
2023/06/01 01:05:12;;;;;;;3.07;1.80;;;14.40;99.90;;;-141.84;55.52;20545.56;5071666;28;20213;-69
2023/06/01 01:07:56;;;;;;;2.67;1.88;;;14.40;99.90;;;-141.84;55.61;20574.00;5070892;28;20221;-68
2023/06/01 01:10:32;;;;;;;4.75;1.83;;;14.40;99.90;;;-141.84;54.74;20582.16;5071239;28;20279;-69
2023/06/01 01:13:13;;;;;;;4.10;2.03;;;14.40;99.90;;;-141.84;54.17;20600.44;5070654;28;20192;-69
2023/06/01 01:15:54;;;;;;;3.23;1.93;;;14.50;99.90;;;-141.84;54.81;20561.81;5070779;28;20254;-68
2023/06/01 01:18:32;;;;;;;3.03;2.00;;;14.50;99.90;;;-141.84;54.83;20594.34;5070962;28;20216;-69
2023/06/01 01:21:21;;;;;;;3.10;1.93;;;14.50;99.90;;;-141.84;54.47;20608.56;5071160;28;20189;-68
2023/06/01 01:24:24;;;;;;;2.40;1.77;;;14.60;99.90;;;-141.84;55.19;20563.84;5070481;28;20196;-69
2023/06/01 01:27:11;;;;;;;3.87;2.10;;;14.60;99.90;;;-141.84;55.05;20596.38;5070841;28;20200;-69
2023/06/01 01:29:43;;;;;;;2.30;2.10;;;14.60;99.90;;;-141.84;55.22;20584.19;5050548;28;20273;-68
2023/06/01 01:32:13;;;;;;;5.87;2.40;;;14.60;99.90;;;-141.84;54.57;20651.25;5064866;28;20308;-68
2023/06/01 01:34:46;;;;;;;3.83;2.30;;;14.70;99.90;;;-141.84;54.62;20614.66;5049993;28;20264;-69
2023/06/01 01:37:14;;;;;;;3.42;2.08;;;14.80;99.90;;;-141.84;55.20;20639.06;5050400;28;20228;-69
2023/06/01 01:39:42;;;;;;;2.43;1.90;;;14.80;99.90;;;-141.84;55.68;20614.66;5055267;28;20205;-69
2023/06/01 01:42:10;;;;;;;3.60;2.00;;;14.70;99.90;;;-141.84;54.97;20659.38;5069917;28;20246;-69
2023/06/01 01:44:40;;;;;;;4.15;2.20;;;14.80;99.90;;;-141.84;55.10;20665.50;5070282;28;20246;-69
2023/06/01 01:47:15;;;;;;;3.42;2.30;;;14.80;99.90;;;-141.84;55.54;20602.47;5070068;28;20204;-69
2023/06/01 01:49:49;;;;;;;3.25;2.20;;;14.80;99.90;;;-141.84;55.02;20663.47;5070424;28;20223;-69
2023/06/01 01:52:23;;;;;;;3.95;2.00;;;14.80;99.90;;;-141.84;56.01;20590.28;5070273;28;20275;-68
2023/06/01 01:54:54;;;;;;;5.17;2.13;;;14.80;99.90;;;-141.84;55.69;20647.19;5070349;28;20188;-69
2023/06/01 01:57:25;;;;;;;3.80;2.20;;;14.80;99.90;;;-141.84;55.77;20630.94;5070457;28;20189;-68
2023/06/01 01:59:57;;;;;;;3.73;2.13;;;14.80;99.90;;;-141.84;56.30;20608.56;5069774;28;20728;-68
2023/06/01 02:02:25;;;;;;;3.95;2.10;;;14.70;99.90;;;-141.84;56.43;20622.81;5034892;28;20655;-69
2023/06/01 02:04:53;;;;;;;4.53;2.00;;;14.70;99.90;;;-141.84;56.73;20582.16;5083440;28;20196;-68
2023/06/01 02:07:21;;;;;;;2.95;2.28;;;14.70;99.90;;;-141.84;56.38;20598.41;5071047;28;20216;-69
2023/06/01 02:09:50;;;;;;;3.33;2.23;;;14.70;99.90;;;-141.84;56.39;20592.31;5070111;28;20196;-69
2023/06/01 02:12:18;;;;;;;4.03;2.50;;;14.60;99.90;;;-141.84;56.34;20622.81;5070307;28;20196;-68
2023/06/01 02:14:46;;;;;;;7.43;2.60;;;14.60;99.90;;;-141.84;57.21;20547.59;5070273;28;20196;-68
2023/06/01 02:17:16;;;;;;;4.23;2.23;;;14.60;99.90;;;-141.84;57.49;20565.88;5070110;28;20204;-68
2023/06/01 02:19:45;;;;;;;7.03;2.67;;;14.50;99.90;;;-141.84;57.86;20545.56;5070188;28;20247;-68
2023/06/01 02:22:13;;;;;;;3.33;2.57;;;14.40;99.90;;;-141.84;57.59;20549.63;5070028;28;20680;-69
2023/06/01 02:24:41;;;;;;;4.97;2.70;;;14.40;99.90;;;-141.84;57.74;20578.09;5069759;28;20251;-69
2023/06/01 02:27:09;;;;;;;2.17;1.97;;;14.40;99.90;;;-141.84;57.97;20586.22;5070124;28;20270;-69
2023/06/01 02:29:38;;;;;;;4.10;2.33;;;;;;;-141.84;57.90;20533.34;5070210;28;20236;-69
2023/06/01 02:32:07;;;;;;;3.30;2.40;;;;;;;-141.84;58.50;20571.97;5067130;28;20288;-68
2023/06/01 02:34:37;;;;;;;4.17;2.87;;;;;;;-141.84;58.51;20529.28;5049814;28;20320;-68
2023/06/01 02:37:06;;;;;;;5.13;2.70;;;;;;;-141.84;59.50;20515.06;5064482;28;20291;-68
2023/06/01 02:39:35;;;;;;;5.30;2.43;;;;;;;-141.84;59.67;20466.28;5070407;28;20315;-70
2023/06/01 02:42:03;;;;;;;3.73;2.63;;;;;;;-141.84;60.09;20490.66;5070749;28;20279;-70
2023/06/01 02:44:32;;;;;;;3.03;2.30;;;;;;;-141.84;60.07;20496.78;5070186;28;20307;-69
2023/06/01 02:47:00;;;;;;;4.20;2.40;;;;;;;-141.84;60.39;20513.03;5070098;28;20232;-69
2023/06/01 02:49:29;;;;;;;4.90;2.60;;;;;;;-141.84;60.83;20452.06;5051017;28;20254;-68
2023/06/01 02:51:59;;;;;;;3.77;2.47;;;;;;;-141.84;61.47;20415.47;5070144;28;20263;-69
2023/06/01 02:54:28;;;;;;;4.27;2.50;;;;;;;-141.84;61.20;20454.09;5073064;28;20228;-69
2023/06/01 02:56:56;;;;;;;3.43;2.57;;;;;;;-141.84;61.82;20423.59;5073289;28;20259;-69
2023/06/01 02:59:25;;;;;;;4.90;2.87;;;;;;;-141.84;62.21;20431.72;5073754;28;20336;-68
2023/06/01 03:01:53;;;;;;;4.57;2.60;;;;;;;-141.84;61.76;20417.50;5072857;28;20205;-68
2023/06/01 03:04:22;;;;;;;3.80;2.37;;;;;;;-141.84;61.94;20411.41;5082309;28;20204;-68
2023/06/01 03:06:51;;;;;;;4.30;2.80;;;;;;;-141.84;62.39;20415.47;5093460;28;20200;-69
2023/06/01 03:09:20;;;;;;;5.23;2.60;;;;;;;-141.84;62.14;20423.59;5073522;28;20451;-69
2023/06/01 03:11:49;;;;;;;3.50;2.37;;;;;;;-141.84;62.80;20405.31;5073038;28;20693;-68
2023/06/01 03:14:18;;;;;;;5.50;2.77;;;;;;;-141.84;63.18;20384.97;5073168;28;20278;-68
2023/06/01 03:16:46;;;;;;;4.33;2.77;;;;;;;-141.84;62.42;20427.66;5072877;28;20240;-69
2023/06/01 03:19:15;;;;;;;4.17;2.60;;;;;;;-141.84;62.29;20437.81;5073300;28;20227;-69
2023/06/01 03:21:44;;;;;;;5.50;2.63;;;;;;;-141.84;63.17;20401.22;5073250;28;20255;-68
2023/06/01 03:24:12;;;;;;;4.80;3.10;;;;;;;-141.84;63.05;20417.50;5073027;28;20549;-68
2023/06/01 03:26:42;;;;;;;5.90;2.77;;;;;;;-141.84;63.37;20399.19;5072853;28;20200;-69
2023/06/01 03:29:10;;;;;;;3.17;2.60;;;;;;;-141.84;63.60;20403.25;5073190;28;20292;-68
2023/06/01 03:31:39;;;;;;;5.37;2.80;;;;;;;-141.84;62.77;20411.41;5072805;28;20308;-69
2023/06/01 03:34:08;;;;;;;4.33;3.13;;;;;;;-141.84;63.54;20395.13;5072891;28;20239;-69
2023/06/01 03:36:37;;;;;;;7.10;3.23;;;;;;;-141.84;63.58;20380.91;5073143;28;20244;-68
2023/06/01 03:39:08;;;;;;;3.47;2.90;;;;;;;-141.84;63.29;20405.31;5072674;28;20676;-68
2023/06/01 03:41:36;;;;;;;5.73;2.90;;;;;;;-141.84;63.75;20417.50;5072761;28;20246;-70
2023/06/01 03:44:06;;;;;;;4.17;2.77;;;;;;;-141.84;64.25;20395.13;5072703;28;20251;-69
2023/06/01 03:46:37;;;;;;;4.23;3.00;;;;;;;-141.84;64.38;20409.38;5072683;28;20216;-68
2023/06/01 03:49:06;;;;;;;5.17;2.83;;;;;;;-141.84;64.53;20411.41;5073086;28;20607;-68
2023/06/01 03:51:35;;;;;;;4.97;3.57;;;;;;;-141.84;64.34;20395.13;5072472;28;20291;-67
2023/06/01 03:54:04;;;;;;;6.83;3.60;;;;;;;-141.84;64.32;20411.41;5072206;28;20229;-69
2023/06/01 03:56:33;;;;;;;5.87;3.03;;;;;;;-141.84;64.16;20376.84;5072490;28;20200;-69
2023/06/01 03:59:02;;;;;;;7.10;3.23;;;;;;;-141.84;64.24;20433.75;5072430;28;20294;-69
2023/06/01 04:01:33;;;;;;;8.37;3.40;;;;;;;-141.84;64.22;20425.63;5072005;28;20296;-69
2023/06/01 04:04:04;;;;;;;5.80;3.40;;;;;;;-141.84;64.25;20433.75;5078198;28;20722;-69
2023/06/01 04:06:35;;;;;;;4.83;3.30;;;;;;;-141.84;63.41;20401.22;5091659;28;20214;-69
2023/06/01 04:09:06;;;;;;;6.00;3.37;;;;;;;-141.84;63.86;20405.31;5073452;28;20684;-69
2023/06/01 04:11:35;;;;;;;5.33;3.30;;;;;;;-141.84;63.70;20452.06;5072200;28;20248;-69
2023/06/01 04:14:03;;;;;;;7.33;3.67;;;;;;;-141.84;62.56;20508.97;5072218;28;20232;-69
2023/06/01 04:16:33;;;;;;;5.73;3.43;;;;;;;-141.84;61.92;20492.72;5071775;28;20204;-69
2023/06/01 04:19:02;;;;;;;5.83;3.80;;;;;;;-141.84;62.53;20450.03;5071889;28;20714;-69
2023/06/01 04:21:32;;;;;;;4.87;3.10;;;;;;;-141.84;62.42;20496.78;5072148;28;20259;-69
2023/06/01 04:24:00;;;;;;;5.67;3.73;;;;;;;-141.84;62.43;20478.47;5072026;28;20629;-68
2023/06/01 04:26:31;;;;;;;6.23;3.37;;;;;;;-141.84;62.64;20498.81;5072100;28;20200;-68
2023/06/01 04:29:00;;;;;;;6.17;3.80;;;;;;;-141.84;61.94;20490.66;5071747;28;20648;-69
2023/06/01 04:31:29;;;;;;;6.13;3.63;;;;;;;-141.84;62.37;20492.72;5071784;28;20291;-70
2023/06/01 04:34:01;;;;;;;6.30;3.90;;;;;;;-141.84;61.52;20541.50;5053299;28;20782;-68
2023/06/01 04:36:30;;;;;;;5.63;3.80;;;;;;;-141.84;61.50;20525.22;5051995;28;20281;-70
2023/06/01 04:38:58;;;;;;;5.47;3.20;;;;;;;-141.84;61.38;20565.88;5051953;28;20237;-68
2023/06/01 04:41:28;;;;;;;6.53;3.43;;;;;;;-141.84;60.89;20606.53;5068042;28;20660;-69
2023/06/01 04:43:59;;;;;;;3.93;3.20;;;;;;;-141.84;60.82;20569.94;5072292;28;20534;-69
2023/06/01 04:46:27;;;;;;;5.33;3.40;;;;;;;-141.84;60.56;20639.06;5071763;28;20200;-70
2023/06/01 04:48:58;;;;;;;5.22;3.72;;;;;;;-141.84;60.21;20675.66;5071327;28;20200;-68
2023/06/01 04:51:27;;;;;;;5.30;3.63;;;;;;;-141.84;54.62;21047.69;5071291;28;20185;-68
2023/06/01 04:53:55;;;;;;;6.22;3.67;;;;;;;-141.84;48.57;21411.59;5071050;28;20251;-69
2023/06/01 04:56:26;;;;;;;5.43;3.50;;;;;;;-141.84;45.09;21806.06;5071044;28;20203;-68
2023/06/01 04:58:57;;;;;;;7.03;3.90;;;;;;;-141.84;41.58;22163.94;5071573;28;20189;-69
2023/06/01 05:01:29;;;;;;;4.85;3.42;;;;;;;-141.84;39.06;22444.59;5070763;28;20240;-69
2023/06/01 05:04:00;;;;;;;6.20;3.92;;;;;;;-141.84;37.98;22562.56;5076640;28;20238;-69
2023/06/01 05:06:28;;;;;;;6.20;4.00;;;;;;;-141.84;38.26;22574.75;5073535;28;20196;-68
2023/06/01 05:08:58;;;;;;;8.13;4.00;;;;;;;-141.84;38.68;22530.00;5070564;28;20708;-68
2023/06/01 05:11:26;;;;;;;6.95;4.90;;;;;;;-141.84;37.52;22658.16;5051796;28;20291;-69
2023/06/01 05:14:01;;;;;;;4.75;3.80;;;;;;;-141.84;37.86;22570.69;5070708;28;20243;-68
2023/06/01 05:16:30;;;;;;;4.57;4.03;;;;;;;-141.84;37.50;22564.59;5036883;28;20258;-69
2023/06/01 05:19:00;;;;;;;4.95;4.45;;;;;;;-141.84;37.73;22664.25;5071049;28;20605;-68
2023/06/01 05:21:28;;;;;;;5.65;4.00;;;;;;;-141.84;37.38;22694.75;5070593;28;20609;-69
2023/06/01 05:23:57;;;;;;;4.97;4.35;;;;;;;-141.84;37.84;22556.47;5071113;28;20236;-68
2023/06/01 05:26:26;;;;;;;6.55;4.68;;;;;;;-141.84;38.41;22389.69;5070829;28;20205;-69
2023/06/01 05:28:55;;;;;;;6.35;4.60;;;;;;;-141.84;39.34;22285.97;5071097;28;20617;-71
2023/06/01 05:31:23;;;;;;;7.05;5.15;;;;;;;-141.84;40.35;22098.88;5070540;28;20208;-71
2023/06/01 05:33:52;;;;;;;8.48;4.65;;;;;;;-141.84;42.16;21901.63;5052700;28;20758;-70
2023/06/01 05:36:22;;;;;;;5.95;5.18;;;;;;;-141.84;44.35;21684.06;5050604;28;20205;-71
2023/06/01 05:38:51;;;;;;;7.95;4.95;;;;;;;-141.84;46.74;21450.22;5050586;28;20213;-70
2023/06/01 05:41:19;;;;;;;7.38;4.75;;;;;;;-141.84;48.23;21346.53;5065886;28;20217;-70
2023/06/01 05:43:48;;;;;;;7.95;5.45;;;;;;;-141.84;49.43;21220.47;5070568;28;20290;-70
2023/06/01 05:46:16;;;;;;;8.38;5.50;;;;;;;-141.84;50.62;21131.03;5070206;28;20204;-70
2023/06/01 05:48:45;;;;;;;9.98;5.55;;;;;;;-141.84;51.26;21082.25;5070581;28;20224;-71
2023/06/01 05:51:13;;;;;;;7.30;5.30;;;;;;;-141.84;51.78;21045.63;5070590;28;20235;-70
2023/06/01 05:53:45;;;;;;;7.50;5.47;;;;;;;-141.84;52.25;21031.41;5070421;28;20569;-71
2023/06/01 05:56:14;;;;;;;9.43;5.75;;;;;;;-141.84;52.73;21029.38;5070747;28;20189;-69
2023/06/01 05:58:43;;;;;;;6.35;5.57;;;;;;;-141.84;53.01;21047.69;5070426;28;20209;-70
2023/06/01 06:01:11;;;;;;;8.18;5.30;;;;;;;-141.84;52.46;21011.09;5070164;28;20228;-71
2023/06/01 06:03:40;;;;;;;7.82;4.88;;;;;;;-141.84;53.09;21015.16;5070403;28;20220;-72
2023/06/01 06:06:08;;;;;;;7.20;5.50;;;;;;;-141.84;52.99;21065.97;5070527;28;20201;-70
2023/06/01 06:08:37;;;;;;;8.02;5.55;;;;;;;-141.84;52.58;21088.34;5075348;28;20292;-71
2023/06/01 06:11:07;;;;;;;9.60;6.22;;;;;;;-141.84;52.33;21100.53;5070616;28;20291;-69
2023/06/01 06:13:35;;;;;;;9.15;5.75;;;;;;;-141.84;51.95;21131.03;5070750;28;20219;-70
2023/06/01 06:16:04;;;;;;;8.00;5.78;;;;;;;-141.84;51.61;21126.97;5070266;28;20546;-71
2023/06/01 06:18:34;;;;;;;9.75;5.97;;;;;;;-141.84;52.06;21114.75;5070282;28;20610;-70
2023/06/01 06:21:46;;;;;;;9.80;5.55;;;;;;;-141.84;51.54;21080.19;5070024;28;20216;-70
2023/06/01 06:24:33;;;;;;;7.80;5.18;;;;;;;-141.84;52.42;21112.72;5069931;28;20200;-70
2023/06/01 06:27:03;;;;;;;9.57;6.35;;;;;;;-141.84;52.20;21102.56;5070264;28;20288;-69
2023/06/01 06:29:31;;;;;;;9.10;6.55;;;;;;;-141.84;52.98;21100.53;5072782;28;20755;-70
2023/06/01 06:32:00;;;;;;;9.05;6.85;;;;;;;-141.84;53.20;21072.06;5070927;28;20730;-69
2023/06/01 06:34:35;;;;;;;13.38;7.60;;;;;;;-141.84;53.89;21057.84;5032889;28;20701;-69
2023/06/01 06:37:04;;;;;;;9.90;7.32;;;;;;;-141.84;53.63;21106.63;5052356;28;20186;-69
2023/06/01 06:39:33;;;;;;;10.70;6.78;;;;;;;-141.84;52.76;21112.72;5052504;28;20197;-70
2023/06/01 06:42:03;;;;;;;11.07;7.32;;;;;;;-141.84;52.90;21080.19;5072088;28;20769;-70
2023/06/01 06:44:31;;;;;;;10.55;7.13;;;;;;;-141.84;52.77;21090.38;5073607;28;20704;-70
2023/06/01 06:47:01;;;;;;;9.48;7.78;;;;;;;-141.84;52.53;21116.78;5073740;28;20196;-69
2023/06/01 06:49:30;;;;;;;9.30;7.18;;;;;;;-141.84;52.14;21102.56;5074046;28;20201;-70
2023/06/01 06:51:59;;;;;;;13.52;8.10;;;;;;;-141.84;52.16;21086.31;5073718;28;20203;-70
2023/06/01 06:54:27;;;;;;;12.10;8.05;;;;;;;-141.84;52.42;21084.28;5073635;28;20197;-70
2023/06/01 06:56:56;;;;;;;11.05;7.90;;;;;;;-141.84;52.94;21057.84;5073973;28;20292;-69
2023/06/01 06:59:25;;;;;;;9.15;7.25;;;;;;;-141.84;52.11;21019.22;5073752;28;20197;-58
2023/06/01 07:01:54;;;;;;;10.45;7.93;;;;;;;-141.84;51.99;21049.72;5072799;28;20311;-56
2023/06/01 07:04:22;;;;;;;10.40;8.10;;;;;;;-141.84;51.81;21033.44;5073323;28;20549;-58
2023/06/01 07:06:52;;;;;;;11.70;7.50;;;;;;;-141.84;51.83;21080.19;5068155;28;20225;-57
2023/06/01 07:09:20;;;;;;;12.23;8.18;;;;;;;-141.84;51.48;21057.84;5038050;28;20239;-56
2023/06/01 07:11:49;;;;;;;11.35;8.10;;;;;;;-141.84;52.28;21055.81;5073322;28;20192;-58
2023/06/01 07:14:17;;;;;;;9.50;7.97;;;;;;;-141.84;51.40;21025.31;5072991;28;20798;-58
2023/06/01 07:16:47;;;;;;;10.15;9.00;;;;;;;-141.84;51.33;21092.41;5073194;28;20749;-59
2023/06/01 07:19:16;;;;;;;10.93;8.85;;;;;;;-141.84;52.28;20980.59;5073828;28;20255;-57
2023/06/01 07:21:45;;;;;;;11.35;8.70;;;;;;;-141.84;52.51;21039.53;5073530;28;20290;-55
2023/06/01 07:24:14;;;;;;;15.60;13.65;;;;;;;-141.84;53.28;21009.03;5073753;28;20204;-57
2023/06/01 07:26:42;;;;;;;10.48;8.90;;;;;;;-141.84;52.84;21033.44;5073546;28;20291;-55
2023/06/01 07:29:11;;;;;;;11.02;8.35;;;;;;;-141.84;52.43;21023.28;5073113;28;20222;-59
2023/06/01 07:31:40;;;;;;;10.27;8.50;;;;;;;-141.84;50.50;21031.41;5073356;28;20205;-58
2023/06/01 07:34:10;;;;;;;12.52;8.27;;;;;;;-141.84;50.95;21041.56;5053067;28;20232;-59
2023/06/01 07:36:38;;;;;;;13.10;8.63;;;;;;;-141.84;51.12;21025.31;5052850;28;20299;-57
2023/06/01 07:39:08;;;;;;;14.32;10.02;;;;;;;-141.84;51.61;21007.00;5068871;28;20215;-57
2023/06/01 07:41:39;;;;;;;12.68;9.13;;;;;;;-141.84;51.70;21061.91;5072111;28;20547;-58
2023/06/01 07:44:08;;;;;;;11.38;8.13;;;;;;;-141.84;51.93;20988.72;5072565;28;20299;-57
2023/06/01 07:46:36;;;;;;;11.07;8.07;;;;;;;-141.84;52.01;20984.66;5072379;28;20204;-58
2023/06/01 07:49:05;;;;;;;12.15;9.25;;;;;;;-141.84;52.06;21037.50;5072224;28;20664;-55
2023/06/01 07:51:36;;;;;;;11.52;8.25;;;;;;;-141.84;52.06;21017.19;5072220;28;20236;-56
2023/06/01 07:54:04;;;;;;;14.20;8.45;;;;;;;-141.84;51.34;21068.00;5072847;28;20637;-57
2023/06/01 07:56:33;;;;;;;12.48;8.93;;;;;;;-141.84;50.90;21041.56;5073119;28;20229;-56
2023/06/01 07:59:01;;;;;;;12.65;9.13;;;;;;;-141.84;51.30;21039.53;5072833;28;20583;-56
2023/06/01 08:01:30;;;;;;;10.40;7.95;;;;;;;-141.84;51.57;21070.03;5071737;28;20228;-58
2023/06/01 08:03:59;;;;;;;11.95;8.60;;;;;;;-141.84;51.59;21088.34;5072523;28;20220;-56
2023/06/01 08:06:28;;;;;;;10.23;8.05;;;;;;;-141.84;51.45;21094.44;5072483;28;20291;-58
2023/06/01 08:08:58;;;;;;;12.77;8.57;;;;;;;-141.84;51.19;21057.84;5071864;28;20279;-56
2023/06/01 08:11:27;;;;;;;13.05;9.18;;;;;;;-141.84;51.30;21094.44;5072117;28;20211;-56
2023/06/01 08:13:56;;;;;;;10.40;8.07;;;;;;;-141.84;51.37;21082.25;5072060;28;20287;-57
2023/06/01 08:16:26;;;;;;;15.98;9.55;;;;;;;-141.84;51.02;21102.56;5071974;28;20238;-57
2023/06/01 08:18:56;;;;;;;14.55;9.20;;;;;;;-141.84;50.97;21114.75;5071725;28;20641;-57
2023/06/01 08:21:26;;;;;;;12.70;9.10;;;;;;;-141.84;51.04;21106.63;5071811;28;20204;-59
2023/06/01 08:23:55;;;;;;;12.30;9.02;;;;;;;-141.84;51.07;21063.94;5072135;28;20290;-57
2023/06/01 08:26:26;;;;;;;13.68;9.18;;;;;;;-141.84;50.81;21133.06;5071391;28;20295;-59
2023/06/01 08:28:55;;;;;;;13.48;9.35;;;;;;;-141.84;50.90;21155.44;5071844;28;20220;-58
2023/06/01 08:31:24;;;;;;;13.43;9.80;;;;;;;-141.84;50.13;21200.16;5071384;28;20291;-56
2023/06/01 08:33:54;;;;;;;14.18;10.38;;;;;;;-141.84;49.58;21196.09;5057259;28;20315;-59
2023/06/01 08:36:23;;;;;;;17.08;12.32;;;;;;;-141.84;49.18;21171.69;5071744;28;20205;-58
2023/06/01 08:38:55;;;;;;;14.93;12.07;;;;;;;-141.84;49.17;21202.19;5071649;28;20201;-57
2023/06/01 08:41:32;;;;;;;14.27;11.75;;;;;;;-141.84;48.71;21285.53;5068979;28;20288;-56
2023/06/01 08:44:04;;;;;;;15.90;12.48;;;;;;;-141.84;47.22;21271.31;5071866;28;20236;-57
2023/06/01 08:46:34;;;;;;;14.95;12.15;;;;;;;-141.84;47.17;21350.59;5071488;28;20203;-57
2023/06/01 08:49:03;;;;;;;17.65;14.55;;;;;;;-141.84;46.79;21383.13;5071477;28;20661;-56
2023/06/01 08:51:36;;;;;;;17.08;14.32;;;;;;;-141.84;46.53;21403.47;5071454;28;20282;-56
2023/06/01 08:54:07;;;;;;;21.27;15.88;;;;;;;-141.84;46.36;21431.94;5071501;28;20231;-58
2023/06/01 08:56:41;;;;;;;16.98;14.48;;;;;;;-141.84;45.93;21407.53;5071171;28;20652;-58
2023/06/01 08:59:13;;;;;;;18.75;15.30;;;;;;;-141.84;45.51;21450.22;5071802;28;20698;-57
2023/06/01 09:01:42;;;;;;;18.25;14.90;;;;;;;-141.84;45.11;21492.94;5052580;28;20287;-57
2023/06/01 09:04:13;;;;;;;19.15;15.32;;;;;;;-141.84;44.70;21444.13;5071339;28;20224;-58
2023/06/01 09:06:43;;;;;;;18.92;14.60;;;;;;;-141.84;45.29;21464.47;5071229;28;20250;-57
2023/06/01 09:09:13;;;;;;;18.38;14.95;;;;;;;-141.84;45.58;21438.03;5071252;28;20278;-57
2023/06/01 09:11:44;;;;;;;21.08;16.30;;;;;;;-141.84;45.33;21474.63;5071259;28;20215;-59
2023/06/01 09:14:22;;;;;;;20.20;15.82;;;;;;;-141.84;45.95;21399.41;5071273;28;20275;-58
2023/06/01 09:16:52;;;;;;;19.42;15.45;;;;;;;-141.84;46.79;21338.41;5070781;28;20255;-58
2023/06/01 09:19:20;;;;;;;20.58;15.68;;;;;;;-141.84;46.89;21283.50;5070976;28;20288;-58
2023/06/01 09:21:58;;;;;;;17.38;14.10;;;;;;;-141.84;47.69;21253.00;5070801;28;20292;-58
2023/06/01 09:24:27;;;;;;;17.38;14.50;;;;;;;-141.84;47.90;21269.28;5070768;28;20277;-57
2023/06/01 09:27:02;;;;;;;18.45;14.88;;;;;;;-141.84;47.93;21271.31;5070743;28;20295;-56
2023/06/01 09:29:31;;;;;;;16.20;13.60;;;;;;;-141.84;48.10;21285.53;5070461;28;20188;-58
2023/06/01 09:32:01;;;;;;;15.13;12.57;;;;;;;-141.84;48.57;21250.97;5068159;28;20227;-56
2023/06/01 09:34:30;;;;;;;14.95;13.13;;;;;;;-141.84;48.71;21222.53;5050518;28;20266;-59
2023/06/01 09:37:07;;;;;;;19.70;13.10;;;;;;;-141.84;49.44;21165.59;5050677;28;20244;-58
2023/06/01 09:39:36;;;;;;;15.02;12.13;;;;;;;-141.84;49.88;21169.66;5051820;28;20221;-56
2023/06/01 09:42:07;;;;;;;16.23;12.55;;;;;;;-141.84;49.78;21181.84;5070182;28;20256;-59
2023/06/01 09:44:39;;;;;;;14.85;11.13;;;;;;;-141.84;50.30;21181.84;5070364;28;20700;-58
2023/06/01 09:47:10;;;;;;;13.68;10.52;;;;;;;-141.84;50.18;21212.34;5070577;28;20220;-58
2023/06/01 09:49:42;;;;;;;13.80;10.57;;;;;;;-141.84;49.75;21232.69;5070656;28;20208;-58
2023/06/01 09:52:14;;;;;;;16.20;11.20;;;;;;;-141.84;49.38;21314.00;5070735;28;20180;-59
2023/06/01 09:54:45;;;;;;;16.00;10.68;;;;;;;-141.84;49.20;21320.09;5070692;28;20193;-58
2023/06/01 09:57:22;;;;;;;11.77;9.27;;;;;;;-141.84;49.81;21291.66;5070624;28;20185;-59
2023/06/01 09:59:51;;;;;;;11.48;9.25;;;;;;;-141.84;49.38;21356.69;5070460;28;20495;-58
2023/06/01 10:02:22;;;;;;;10.52;9.07;;;;;;;-141.84;49.24;21348.56;5069983;28;20201;-59
2023/06/01 10:04:52;;;;;;;12.88;9.95;;;;;;;-141.84;48.60;21375.00;5069680;28;20197;-59
2023/06/01 10:07:23;;;;;;;16.40;10.77;;;;;;;-141.84;48.91;21391.28;5070441;28;20236;-58
2023/06/01 10:09:54;;;;;;;13.57;10.60;;;;;;;-141.84;49.46;21346.53;5070491;28;20199;-59
2023/06/01 10:12:25;;;;;;;14.57;11.02;;;;;;;-141.84;50.26;21299.78;5070402;28;20188;-58
2023/06/01 10:14:53;;;;;;;15.93;10.65;;;;;;;-141.84;50.54;21291.66;5070140;28;20272;-58
2023/06/01 10:17:22;;;;;;;13.07;10.98;;;;;;;-141.84;50.36;21277.41;5070038;28;20209;-57
2023/06/01 10:19:52;;;;;;;12.07;10.27;;;;;;;-141.84;50.62;21293.69;5070370;28;20258;-57
2023/06/01 10:22:20;;;;;;;13.23;11.63;;;;;;;-141.84;50.52;21267.25;5070241;28;20263;-58
2023/06/01 10:24:49;;;;;;;12.35;11.00;;;;;;;-141.84;50.82;21287.56;5069782;28;20220;-57
2023/06/01 10:27:25;;;;;;;15.18;11.30;;;;;;;-141.84;51.38;21281.47;5069935;28;20243;-59
2023/06/01 10:29:56;;;;;;;13.23;11.82;;;;;;;-141.84;51.13;21287.56;5070237;28;20275;-56
2023/06/01 10:32:44;;;;;;;15.18;12.25;;;;;;;-141.84;50.87;21320.09;5064300;28;20640;-57
2023/06/01 10:36:05;;;;;;;14.70;10.88;;;;;;;-141.84;51.13;21338.41;5050188;28;20178;-59
2023/06/01 10:38:33;;;;;;;13.70;11.32;;;;;;;-141.84;50.94;21338.41;5049681;28;20225;-58
2023/06/01 10:41:28;;;;;;;14.00;11.98;;;;;;;-141.84;50.48;21305.88;5063420;28;20224;-58
2023/06/01 10:43:57;;;;;;;14.05;10.93;;;;;;;-141.84;50.81;21311.97;5069835;28;20799;-57
2023/06/01 10:46:37;;;;;;;14.25;11.88;;;;;;;-141.84;50.34;21370.94;5069429;28;20640;-58
2023/06/01 10:49:08;;;;;;;13.18;11.82;;;;;;;-141.84;50.85;21366.88;5035460;28;20201;-57
2023/06/01 10:51:37;;;;;;;12.18;10.88;;;;;;;-141.84;50.36;21401.44;5069751;28;20680;-58
2023/06/01 10:54:25;;;;;;;15.25;11.82;;;;;;;-141.84;49.52;21433.97;5069939;28;20243;-58
2023/06/01 10:57:22;;;;;;;15.43;13.07;;;;;;;-141.84;49.64;21442.09;5070056;28;20252;-58
2023/06/01 11:00:14;;;;;;;16.20;13.25;;;;;;;-141.84;48.90;21436.00;5069654;28;20630;-58
2023/06/01 11:02:48;;;;;;;16.48;14.40;;;;;;;-141.84;48.90;21446.16;5049845;28;20201;-57
2023/06/01 11:05:47;;;;;;;17.58;13.63;;;;;;;-141.84;48.88;21488.88;5057257;28;20216;-58
2023/06/01 11:08:57;;;;;;;16.70;14.90;;;;;;;-141.84;48.78;21482.75;5069477;28;20288;-59
2023/06/01 11:11:59;;;;;;;17.33;13.77;;;;;;;-141.84;49.12;21515.28;5069721;28;20181;-58